NCAR-RAP Real-Time Weather Data

Output produced by METARs form (24 April 2018  16:13 UTC)
found at http://weather.rap.ucar.edu/surface/
 
RJSK 241230Z 14006KT 4000 -RA BR FEW001 BKN003 BKN012 12/11 Q1009 RMK 1ST001 5ST003 6ST012 A2980
RJSK 241200Z 14005KT 9000 -RA FEW001 SCT003 BKN035 12/11 Q1009
RJSK 241100Z 13006KT 8000 -RA FEW001 BKN035 12/11 Q1009
RJSK 241000Z 12005KT 8000 -RA FEW001 BKN035 12/11 Q1009
RJSK 240937Z 13007KT 5000 -RA BR FEW001 SCT005 BKN020 12/11 Q1009 RMK 1ST001 3ST005 5SC020 A2981
RJSK 240913Z 13004KT 4000 -RA BR FEW001 SCT002 BKN005 13/11 Q1009 RMK 2ST001 3ST002 5ST005 A2982
RJSK 240900Z 13005KT 3500 R28/P1800N -RA PRFG BR SCT001 BKN002 BKN003 13/11 Q1009
RJSK 240849Z 14005KT 4000 R28/P1800N -RA PRFG BR SCT001 SCT002 BKN003 13/11 Q1009 RMK 3ST001 4ST002 5ST003 A2982 1400E-SE
RJSK 240843Z 14006KT 4000 -RA BR FEW001 SCT003 BKN004 13/11 Q1009 RMK 2ST001 3ST003 5ST004 A2982
RJSK 240826Z 14005KT 4000 RA BR FEW001 SCT012 BKN030 13/11 Q1009 RMK 1ST001 3ST012 5SC030 A2982
RJSK 240800Z 13005KT 8000 -RA FEW001 BKN035 BKN060 13/11 Q1010
RJSK 240700Z 12004KT 6000 -RA FEW001 SCT015 BKN030 13/12 Q1010
RJSK 240600Z 11004KT 9000 -RA FEW001 SCT035 BKN045 13/12 Q1011
RJSK 240525Z 11004KT 080V140 8000 -RA FEW001 SCT006 BKN010 13/12 Q1011 RMK 1ST001 3ST006 5ST010 A2987
RJSK 240500Z 13004KT 100V170 9000 -RA FEW001 SCT004 BKN006 14/12 Q1011
RJSK 240437Z 14004KT 100V160 8000 -RA FEW001 BKN006 BKN035 13/12 Q1012 RMK 1ST001 5ST006 7SC035 A2988
RJSK 240400Z 13004KT 110V170 9000 -RA FEW006 SCT025 BKN040 13/11 Q1012
RJSK 240300Z VRB02KT 9999 -RA FEW010 BKN025 BKN040 13/11 Q1013
RJSK 240200Z 14004KT 9999 -RA FEW030 BKN050 BKN070 13/10 Q1014
RJSK 240100Z 14004KT 110V180 9999 -RA FEW030 SCT060 BKN080 13/10 Q1015
RJSK 240000Z 14005KT 9999 -RA FEW010 SCT060 BKN070 12/09 Q1015
RJSK 232300Z 14004KT 9999 FEW004 BKN080 BKN110 11/09 Q1015
RJSK 232200Z 14003KT 120V180 9999 FEW003 BKN080 BKN100 10/09 Q1016
RJSK 232140Z 14004KT 9999 FEW003 BKN080 BKN100 10/08 Q1016 RMK 1ST003 5AC080 7AC100 A3001
RJSK 231200Z 12009KT CAVOK 11/07 Q1020
RJSK 231100Z 13008KT CAVOK 11/09 Q1020
RJSK 231000Z 12008KT 9999 FEW030 BKN060 BKN080 11/09 Q1020
RJSK 230900Z 13007KT 9999 -RA FEW035 BKN060 BKN080 12/09 Q1020
RJSK 230800Z 12007KT 080V140 9999 -RA FEW035 BKN060 BKN080 14/07 Q1019
RJSK 230700Z 14009KT 9999 FEW045 SCT060 BKN080 15/07 Q1019
RJSK 230600Z 12011KT 090V150 9999 FEW050 SCT090 BKN120 16/07 Q1020
RJSK 230500Z 11011KT 9999 FEW050 BKN130 BKN/// 16/07 Q1020
RJSK 230400Z 12012KT 090V170 CAVOK 16/07 Q1020
RJSK 230300Z 14010KT 100V180 9999 FEW035 SCT090 BKN100 15/07 Q1020
RJSK 230200Z 12011KT 080V150 9999 FEW035 BKN110 16/07 Q1021
RJSK 230100Z 14009KT 110V170 CAVOK 15/07 Q1022
RJSK 230000Z 13008KT 9999 FEW030 BKN140 BKN/// 14/08 Q1022
RJSK 222300Z 13008KT 9999 FEW030 SCT120 BKN/// 13/09 Q1022
RJSK 222200Z 15006KT 120V190 9999 FEW030 BKN120 BKN140 11/09 Q1021
RJSK 222140Z 16004KT 120V210 9999 FEW030 BKN120 BKN140 11/09 Q1021 RMK 1CU030 5AC120 7AC140 A3016
RJSK 221200Z 20003KT 160V230 CAVOK 12/10 Q1019
RJSK 221100Z 27004KT 9000 NSC 12/10 Q1019
RJSK 221000Z 27003KT 240V300 CAVOK 14/09 Q1018
RJSK 220900Z 31005KT CAVOK 15/09 Q1017
RJSK 220800Z 31006KT CAVOK 16/08 Q1017
RJSK 220700Z 28010KT CAVOK 19/09 Q1017
RJSK 220600Z 29009KT 250V310 CAVOK 19/07 Q1017
RJSK 220500Z 28012KT CAVOK 20/07 Q1018